Butterfly — C6UP2 — position and weather

sailwx.info

Track history (hours):
 
Tides and Currents Weather Stations Pressure Air Temp Water Temp Dewpoint Dewpoint Depression Visibility Wind Speed Wind Dir Waves Ship Positions

Butterfly

Last reported at 2016-Aug-21 06:22 UTC. Time now 2016-Aug-25 00:58 UTC.
Position N 40°26' W 073°45'.

Length 182 m; draft 7.2 m.

Type: Tanker. MMSI: 311985000.

Date/timePositionNaut miles runAvg speedWind from/ knotsBaromVisibWave heightAir tempDewpointWater temp
2016-Aug-21 06:22N 40°26' W 073°45'911.8
2016-Aug-21 05:33N 40°28' W 073°58'1212.2
2016-Aug-21 04:33N 40°30' W 074°14'4 0.2
2016-Aug-20 06:33N 40°33' W 074°14'4 3.7
2016-Aug-20 05:33N 40°30' W 074°15'8 8.0
2016-Aug-20 04:33N 40°29' W 074°05'10 9.6
2016-Aug-20 03:32N 40°27' W 073°52'5 4.9
2016-Aug-20 02:33N 40°27' W 073°46'8 8.1
2016-Aug-20 01:34N 40°29' W 073°56'9 8.8
2016-Aug-20 00:34N 40°36' W 074°03'0 0.5
2016-Aug-19 23:31N 40°37' W 074°03'0 0.0
2016-Aug-19 22:31N 40°37' W 074°03'0 0.2
2016-Aug-19 21:31N 40°37' W 074°03'0 0.1
2016-Aug-19 20:31N 40°37' W 074°03'0 0.0
2016-Aug-19 19:31N 40°36' W 074°03'0 0.0
2016-Aug-19 18:31N 40°36' W 074°03'0 0.0
2016-Aug-19 17:28N 40°36' W 074°03'0 0.0
2016-Aug-19 16:31N 40°36' W 074°03'0 0.1
2016-Aug-19 15:31N 40°37' W 074°03'0 0.2
2016-Aug-19 14:31N 40°37' W 074°03'0 0.0
2016-Aug-19 13:31N 40°37' W 074°03'0 0.0
2016-Aug-19 12:28N 40°37' W 074°03'0 0.0
2016-Aug-19 11:31N 40°37' W 074°03'0 0.0
2016-Aug-19 10:31N 40°37' W 074°03'0 0.2
2016-Aug-19 09:22N 40°36' W 074°03'0 0.0
2016-Aug-19 08:31N 40°36' W 074°03'0 0.0
2016-Aug-19 07:31N 40°36' W 074°03'0 0.0
2016-Aug-19 06:31N 40°36' W 074°03'0 0.1
2016-Aug-19 05:32N 40°37' W 074°03'3 3.1
2016-Aug-19 04:33N 40°39' W 074°05'0 0.0
2016-Aug-19 03:33N 40°39' W 074°05'0 0.0
2016-Aug-19 02:33N 40°39' W 074°05'0 0.0
2016-Aug-19 01:33N 40°39' W 074°05'0 0.0
2016-Aug-19 00:33N 40°39' W 074°05'0 0.0
2016-Aug-18 23:33N 40°39' W 074°05'0 0.0
2016-Aug-18 22:33N 40°39' W 074°05'0 0.0
2016-Aug-18 21:33N 40°39' W 074°05'0 0.0
2016-Aug-18 20:30N 40°39' W 074°05'0 0.0
2016-Aug-18 19:33N 40°39' W 074°05'0 0.0
2016-Aug-18 18:33N 40°39' W 074°05'0 0.0
2016-Aug-18 17:33N 40°39' W 074°05'0 0.0
2016-Aug-18 16:33N 40°39' W 074°05'0 0.0
2016-Aug-18 15:33N 40°39' W 074°05'0 0.0
2016-Aug-18 14:33N 40°39' W 074°05'0 0.0
2016-Aug-18 13:30N 40°39' W 074°05'0 0.0
2016-Aug-18 12:30N 40°39' W 074°05'0 0.0
2016-Aug-18 11:30N 40°39' W 074°05'0 0.0
2016-Aug-18 10:33N 40°39' W 074°05'0 0.0
2016-Aug-18 09:30N 40°39' W 074°05'0 0.0
2016-Aug-18 08:30N 40°39' W 074°05'0 0.0
2016-Aug-18 07:30N 40°39' W 074°05'0 0.0
2016-Aug-18 06:30N 40°39' W 074°05'0 0.0
2016-Aug-18 05:30N 40°39' W 074°05'0 0.0
2016-Aug-18 04:30N 40°39' W 074°05'0 0.0
2016-Aug-18 03:30N 40°39' W 074°05'0 0.0
2016-Aug-18 02:30N 40°39' W 074°05'0 0.0
2016-Aug-18 01:30N 40°39' W 074°05'0 0.4
2016-Aug-18 00:33N 40°39' W 074°05'6 6.0
2016-Aug-17 23:33N 40°34' W 074°02'9 9.1
2016-Aug-17 22:32N 40°28' W 073°52'7 4.8
2016-Aug-17 21:11N 40°28' W 073°43'16 1.3
2016-Aug-17 08:10N 40°12' W 073°45'2512.8
2016-Aug-17 06:15N 39°48' W 073°40'912.7
2016-Aug-17 05:32N 39°39' W 073°36'1512.4
2016-Aug-17 04:19N 39°26' W 073°27'1012.3
2016-Aug-17 03:30N 39°17' W 073°21'3912.5
2016-Aug-17 00:22N 38°42' W 072°57'1112.9
2016-Aug-16 23:31N 38°33' W 072°51'  
Track history (hours):
 
Tides and Currents Weather Stations Pressure Air Temp Water Temp Dewpoint Dewpoint Depression Visibility Wind Speed Wind Dir Waves Ship Positions

Butterfly

Last reported at 2016-Aug-21 06:22 UTC. Time now 2016-Aug-25 00:58 UTC.
Position N 40°26' W 073°45'.

Length 182 m; draft 7.2 m.

Type: Tanker. MMSI: 311985000.

Date/timePositionNaut miles runAvg speedWind from/ knotsBaromVisibWave heightAir tempDewpointWater temp
2016-Aug-21 06:22N 40°26' W 073°45'911.8
2016-Aug-21 05:33N 40°28' W 073°58'1212.2
2016-Aug-21 04:33N 40°30' W 074°14'4 0.2
2016-Aug-20 06:33N 40°33' W 074°14'4 3.7
2016-Aug-20 05:33N 40°30' W 074°15'8 8.0
2016-Aug-20 04:33N 40°29' W 074°05'10 9.6
2016-Aug-20 03:32N 40°27' W 073°52'5 4.9
2016-Aug-20 02:33N 40°27' W 073°46'8 8.1
2016-Aug-20 01:34N 40°29' W 073°56'9 8.8
2016-Aug-20 00:34N 40°36' W 074°03'0 0.5
2016-Aug-19 23:31N 40°37' W 074°03'0 0.0
2016-Aug-19 22:31N 40°37' W 074°03'0 0.2
2016-Aug-19 21:31N 40°37' W 074°03'0 0.1
2016-Aug-19 20:31N 40°37' W 074°03'0 0.0
2016-Aug-19 19:31N 40°36' W 074°03'0 0.0
2016-Aug-19 18:31N 40°36' W 074°03'0 0.0
2016-Aug-19 17:28N 40°36' W 074°03'0 0.0
2016-Aug-19 16:31N 40°36' W 074°03'0 0.1
2016-Aug-19 15:31N 40°37' W 074°03'0 0.2
2016-Aug-19 14:31N 40°37' W 074°03'0 0.0
2016-Aug-19 13:31N 40°37' W 074°03'0 0.0
2016-Aug-19 12:28N 40°37' W 074°03'0 0.0
2016-Aug-19 11:31N 40°37' W 074°03'0 0.0
2016-Aug-19 10:31N 40°37' W 074°03'0 0.2
2016-Aug-19 09:22N 40°36' W 074°03'0 0.0
2016-Aug-19 08:31N 40°36' W 074°03'0 0.0
2016-Aug-19 07:31N 40°36' W 074°03'0 0.0
2016-Aug-19 06:31N 40°36' W 074°03'0 0.1
2016-Aug-19 05:32N 40°37' W 074°03'3 3.1
2016-Aug-19 04:33N 40°39' W 074°05'0 0.0
2016-Aug-19 03:33N 40°39' W 074°05'0 0.0
2016-Aug-19 02:33N 40°39' W 074°05'0 0.0
2016-Aug-19 01:33N 40°39' W 074°05'0 0.0
2016-Aug-19 00:33N 40°39' W 074°05'0 0.0
2016-Aug-18 23:33N 40°39' W 074°05'0 0.0
2016-Aug-18 22:33N 40°39' W 074°05'0 0.0
2016-Aug-18 21:33N 40°39' W 074°05'0 0.0
2016-Aug-18 20:30N 40°39' W 074°05'0 0.0
2016-Aug-18 19:33N 40°39' W 074°05'0 0.0
2016-Aug-18 18:33N 40°39' W 074°05'0 0.0
2016-Aug-18 17:33N 40°39' W 074°05'0 0.0
2016-Aug-18 16:33N 40°39' W 074°05'0 0.0
2016-Aug-18 15:33N 40°39' W 074°05'0 0.0
2016-Aug-18 14:33N 40°39' W 074°05'0 0.0
2016-Aug-18 13:30N 40°39' W 074°05'0 0.0
2016-Aug-18 12:30N 40°39' W 074°05'0 0.0
2016-Aug-18 11:30N 40°39' W 074°05'0 0.0
2016-Aug-18 10:33N 40°39' W 074°05'0 0.0
2016-Aug-18 09:30N 40°39' W 074°05'0 0.0
2016-Aug-18 08:30N 40°39' W 074°05'0 0.0
2016-Aug-18 07:30N 40°39' W 074°05'0 0.0
2016-Aug-18 06:30N 40°39' W 074°05'0 0.0
2016-Aug-18 05:30N 40°39' W 074°05'0 0.0
2016-Aug-18 04:30N 40°39' W 074°05'0 0.0
2016-Aug-18 03:30N 40°39' W 074°05'0 0.0
2016-Aug-18 02:30N 40°39' W 074°05'0 0.0
2016-Aug-18 01:30N 40°39' W 074°05'0 0.4
2016-Aug-18 00:33N 40°39' W 074°05'6 6.0
2016-Aug-17 23:33N 40°34' W 074°02'9 9.1
2016-Aug-17 22:32N 40°28' W 073°52'7 4.8
2016-Aug-17 21:11N 40°28' W 073°43'16 1.3
2016-Aug-17 08:10N 40°12' W 073°45'2512.8
2016-Aug-17 06:15N 39°48' W 073°40'912.7
2016-Aug-17 05:32N 39°39' W 073°36'1512.4
2016-Aug-17 04:19N 39°26' W 073°27'1012.3
2016-Aug-17 03:30N 39°17' W 073°21'3912.5
2016-Aug-17 00:22N 38°42' W 072°57'1112.9
2016-Aug-16 23:31N 38°33' W 072°51'  

Dump ship's entire track history